sensor_id;sensor_type;location;lat;lon;timestamp;pressure;altitude;pressure_sealevel;temperature;humidity
52625;BME280;38519;52.540;13.410;2023-04-27T00:01:04;100904.50;;;6.13;98.50
52625;BME280;38519;52.540;13.410;2023-04-27T00:03:30;100898.22;;;6.19;97.54
52625;BME280;38519;52.540;13.410;2023-04-27T00:05:55;100891.66;;;6.23;97.48
52625;BME280;38519;52.540;13.410;2023-04-27T00:08:21;100892.84;;;6.27;97.46
52625;BME280;38519;52.540;13.410;2023-04-27T00:10:46;100896.97;;;6.25;97.24
52625;BME280;38519;52.540;13.410;2023-04-27T00:13:11;100890.09;;;6.25;96.83
52625;BME280;38519;52.540;13.410;2023-04-27T00:15:36;100885.00;;;6.16;97.16
52625;BME280;38519;52.540;13.410;2023-04-27T00:18:02;100888.53;;;6.08;98.47
52625;BME280;38519;52.540;13.410;2023-04-27T00:20:27;100889.94;;;5.96;98.58
52625;BME280;38519;52.540;13.410;2023-04-27T00:22:52;100883.53;;;6.01;98.02
52625;BME280;38519;52.540;13.410;2023-04-27T00:25:17;100885.53;;;6.04;97.30
52625;BME280;38519;52.540;13.410;2023-04-27T00:27:43;100889.59;;;6.10;96.48
52625;BME280;38519;52.540;13.410;2023-04-27T00:30:08;100889.88;;;6.13;96.22
52625;BME280;38519;52.540;13.410;2023-04-27T00:32:33;100892.34;;;6.12;95.91
52625;BME280;38519;52.540;13.410;2023-04-27T00:34:59;100886.06;;;6.10;96.18
52625;BME280;38519;52.540;13.410;2023-04-27T00:37:24;100889.44;;;6.09;96.19
52625;BME280;38519;52.540;13.410;2023-04-27T00:39:49;100890.56;;;6.02;96.37
52625;BME280;38519;52.540;13.410;2023-04-27T00:42:15;100900.16;;;6.03;96.52
52625;BME280;38519;52.540;13.410;2023-04-27T00:44:43;100900.28;;;6.05;95.80
52625;BME280;38519;52.540;13.410;2023-04-27T00:47:08;100894.81;;;6.01;95.23
52625;BME280;38519;52.540;13.410;2023-04-27T00:49:34;100899.38;;;5.95;96.45
52625;BME280;38519;52.540;13.410;2023-04-27T00:52:00;100898.97;;;5.91;96.87
52625;BME280;38519;52.540;13.410;2023-04-27T00:54:25;100908.75;;;5.84;97.42
52625;BME280;38519;52.540;13.410;2023-04-27T00:56:51;100906.91;;;5.92;96.41
52625;BME280;38519;52.540;13.410;2023-04-27T00:59:17;100905.38;;;5.86;97.68
52625;BME280;38519;52.540;13.410;2023-04-27T01:01:42;100911.22;;;5.83;97.20
52625;BME280;38519;52.540;13.410;2023-04-27T01:04:09;100909.06;;;5.88;96.69
52625;BME280;38519;52.540;13.410;2023-04-27T01:06:34;100906.03;;;5.83;96.36
52625;BME280;38519;52.540;13.410;2023-04-27T01:08:59;100906.78;;;5.82;96.73
52625;BME280;38519;52.540;13.410;2023-04-27T01:11:25;100912.09;;;5.83;96.47
52625;BME280;38519;52.540;13.410;2023-04-27T01:13:51;100906.34;;;5.77;95.92
52625;BME280;38519;52.540;13.410;2023-04-27T01:16:18;100907.75;;;5.74;95.64
52625;BME280;38519;52.540;13.410;2023-04-27T01:18:43;100915.50;;;5.74;96.00
52625;BME280;38519;52.540;13.410;2023-04-27T01:21:09;100917.50;;;5.76;95.97
52625;BME280;38519;52.540;13.410;2023-04-27T01:23:34;100918.41;;;5.77;96.35
52625;BME280;38519;52.540;13.410;2023-04-27T01:26:00;100914.13;;;5.77;96.41
52625;BME280;38519;52.540;13.410;2023-04-27T01:28:25;100922.03;;;5.79;96.25
52625;BME280;38519;52.540;13.410;2023-04-27T01:30:50;100920.09;;;5.68;97.45
52625;BME280;38519;52.540;13.410;2023-04-27T01:33:15;100912.63;;;5.71;97.27
52625;BME280;38519;52.540;13.410;2023-04-27T01:35:41;100930.66;;;5.60;97.87
52625;BME280;38519;52.540;13.410;2023-04-27T01:38:07;100926.47;;;5.71;97.76
52625;BME280;38519;52.540;13.410;2023-04-27T01:40:32;100924.53;;;5.69;97.55
52625;BME280;38519;52.540;13.410;2023-04-27T01:42:57;100929.06;;;5.71;97.27
52625;BME280;38519;52.540;13.410;2023-04-27T01:45:23;100924.53;;;5.60;98.25
52625;BME280;38519;52.540;13.410;2023-04-27T01:47:51;100926.09;;;5.58;98.49
52625;BME280;38519;52.540;13.410;2023-04-27T01:50:17;100927.91;;;5.59;98.87
52625;BME280;38519;52.540;13.410;2023-04-27T01:52:42;100934.91;;;5.60;98.09
52625;BME280;38519;52.540;13.410;2023-04-27T01:55:07;100929.13;;;5.62;97.89
52625;BME280;38519;52.540;13.410;2023-04-27T01:57:33;100933.69;;;5.65;97.56
52625;BME280;38519;52.540;13.410;2023-04-27T01:59:58;100934.91;;;5.60;98.01
52625;BME280;38519;52.540;13.410;2023-04-27T02:02:23;100936.91;;;5.62;97.35
52625;BME280;38519;52.540;13.410;2023-04-27T02:04:48;100940.09;;;5.60;97.05
52625;BME280;38519;52.540;13.410;2023-04-27T02:07:14;100939.63;;;5.64;96.36
52625;BME280;38519;52.540;13.410;2023-04-27T02:09:39;100934.75;;;5.67;95.46
52625;BME280;38519;52.540;13.410;2023-04-27T02:12:04;100943.78;;;5.53;97.10
52625;BME280;38519;52.540;13.410;2023-04-27T02:14:30;100952.03;;;5.49;97.10
52625;BME280;38519;52.540;13.410;2023-04-27T02:16:55;100954.88;;;5.61;95.15
52625;BME280;38519;52.540;13.410;2023-04-27T02:19:20;100944.97;;;5.57;95.55
52625;BME280;38519;52.540;13.410;2023-04-27T02:21:45;100959.94;;;5.51;95.82
52625;BME280;38519;52.540;13.410;2023-04-27T02:24:11;100953.22;;;5.53;94.80
52625;BME280;38519;52.540;13.410;2023-04-27T02:26:36;100951.41;;;5.52;94.21
52625;BME280;38519;52.540;13.410;2023-04-27T02:29:01;100958.25;;;5.51;94.17
52625;BME280;38519;52.540;13.410;2023-04-27T02:31:27;100957.78;;;5.55;93.88
52625;BME280;38519;52.540;13.410;2023-04-27T02:33:53;100964.19;;;5.50;93.89
52625;BME280;38519;52.540;13.410;2023-04-27T02:36:18;100960.84;;;5.51;93.02
52625;BME280;38519;52.540;13.410;2023-04-27T02:38:43;100956.28;;;5.48;93.16
52625;BME280;38519;52.540;13.410;2023-04-27T02:41:08;100963.00;;;5.46;93.92
52625;BME280;38519;52.540;13.410;2023-04-27T02:43:33;100964.38;;;5.43;93.88
52625;BME280;38519;52.540;13.410;2023-04-27T02:46:02;100962.69;;;5.43;93.27
52625;BME280;38519;52.540;13.410;2023-04-27T02:48:29;100961.00;;;5.44;92.88
52625;BME280;38519;52.540;13.410;2023-04-27T02:50:54;100957.22;;;5.40;93.12
52625;BME280;38519;52.540;13.410;2023-04-27T02:53:20;100953.31;;;5.26;93.47
52625;BME280;38519;52.540;13.410;2023-04-27T02:55:46;100962.72;;;5.26;93.93
52625;BME280;38519;52.540;13.410;2023-04-27T02:58:12;100965.31;;;5.26;93.39
52625;BME280;38519;52.540;13.410;2023-04-27T03:00:37;100966.38;;;5.19;94.10
52625;BME280;38519;52.540;13.410;2023-04-27T03:03:04;100969.75;;;5.27;93.13
52625;BME280;38519;52.540;13.410;2023-04-27T03:05:30;100967.75;;;5.33;91.40
52625;BME280;38519;52.540;13.410;2023-04-27T03:07:55;100971.25;;;5.16;93.61
52625;BME280;38519;52.540;13.410;2023-04-27T03:10:21;100968.22;;;5.20;92.38
52625;BME280;38519;52.540;13.410;2023-04-27T03:12:46;100970.66;;;5.19;92.56
52625;BME280;38519;52.540;13.410;2023-04-27T03:15:11;100970.66;;;5.19;92.49
52625;BME280;38519;52.540;13.410;2023-04-27T03:17:36;100972.63;;;5.21;91.65
52625;BME280;38519;52.540;13.410;2023-04-27T03:20:02;100972.16;;;5.17;92.49
52625;BME280;38519;52.540;13.410;2023-04-27T03:22:28;100975.22;;;5.21;91.73
52625;BME280;38519;52.540;13.410;2023-04-27T03:24:54;100973.56;;;5.13;93.08
52625;BME280;38519;52.540;13.410;2023-04-27T03:27:20;100971.56;;;5.19;91.04
52625;BME280;38519;52.540;13.410;2023-04-27T03:29:45;100980.84;;;5.26;90.25
52625;BME280;38519;52.540;13.410;2023-04-27T03:32:10;100980.41;;;5.30;90.77
52625;BME280;38519;52.540;13.410;2023-04-27T03:34:35;100981.59;;;5.34;89.98
52625;BME280;38519;52.540;13.410;2023-04-27T03:37:01;100988.16;;;5.30;90.31
52625;BME280;38519;52.540;13.410;2023-04-27T03:39:26;100987.41;;;5.14;91.54
52625;BME280;38519;52.540;13.410;2023-04-27T03:41:51;100989.84;;;5.21;90.21
52625;BME280;38519;52.540;13.410;2023-04-27T03:44:16;100989.09;;;5.22;91.32
52625;BME280;38519;52.540;13.410;2023-04-27T03:46:42;100996.88;;;5.22;89.96
52625;BME280;38519;52.540;13.410;2023-04-27T03:49:07;100995.47;;;5.17;90.86
52625;BME280;38519;52.540;13.410;2023-04-27T03:51:32;101000.19;;;5.21;90.75
52625;BME280;38519;52.540;13.410;2023-04-27T03:53:58;101003.09;;;5.24;90.04
52625;BME280;38519;52.540;13.410;2023-04-27T03:56:23;100999.72;;;5.34;89.81
52625;BME280;38519;52.540;13.410;2023-04-27T03:58:48;101003.53;;;5.37;89.25
52625;BME280;38519;52.540;13.410;2023-04-27T04:01:14;101006.88;;;5.27;90.57
52625;BME280;38519;52.540;13.410;2023-04-27T04:03:41;101008.41;;;5.17;90.08
52625;BME280;38519;52.540;13.410;2023-04-27T04:06:06;101004.44;;;5.29;89.20
52625;BME280;38519;52.540;13.410;2023-04-27T04:08:31;101005.97;;;5.27;90.02
52625;BME280;38519;52.540;13.410;2023-04-27T04:10:58;101009.31;;;5.26;89.53
52625;BME280;38519;52.540;13.410;2023-04-27T04:13:23;101016.03;;;5.24;89.97
52625;BME280;38519;52.540;13.410;2023-04-27T04:15:48;101013.44;;;5.15;90.72
52625;BME280;38519;52.540;13.410;2023-04-27T04:18:14;101021.06;;;5.22;88.90
52625;BME280;38519;52.540;13.410;2023-04-27T04:20:39;101028.22;;;5.25;89.01
52625;BME280;38519;52.540;13.410;2023-04-27T04:23:04;101021.66;;;5.28;88.21
52625;BME280;38519;52.540;13.410;2023-04-27T04:25:30;101029.88;;;5.24;88.24
52625;BME280;38519;52.540;13.410;2023-04-27T04:27:56;101028.84;;;5.22;88.57
52625;BME280;38519;52.540;13.410;2023-04-27T04:30:21;101031.88;;;5.27;87.75
52625;BME280;38519;52.540;13.410;2023-04-27T04:32:47;101027.91;;;5.31;87.91
52625;BME280;38519;52.540;13.410;2023-04-27T04:35:12;101029.13;;;5.34;87.93
52625;BME280;38519;52.540;13.410;2023-04-27T04:37:38;101024.41;;;5.39;87.63
52625;BME280;38519;52.540;13.410;2023-04-27T04:40:04;101027.44;;;5.43;86.37
52625;BME280;38519;52.540;13.410;2023-04-27T04:42:33;101037.50;;;5.49;86.43
52625;BME280;38519;52.540;13.410;2023-04-27T04:44:58;101040.25;;;5.51;86.34
52625;BME280;38519;52.540;13.410;2023-04-27T04:47:23;101028.50;;;5.54;86.12
52625;BME280;38519;52.540;13.410;2023-04-27T04:49:49;101031.84;;;5.62;86.06
52625;BME280;38519;52.540;13.410;2023-04-27T04:52:14;101033.50;;;5.61;86.74
52625;BME280;38519;52.540;13.410;2023-04-27T04:54:39;101034.44;;;5.62;86.06
52625;BME280;38519;52.540;13.410;2023-04-27T04:57:05;101038.97;;;5.64;85.91
52625;BME280;38519;52.540;13.410;2023-04-27T04:59:32;101043.06;;;5.71;85.97
52625;BME280;38519;52.540;13.410;2023-04-27T05:01:57;101042.50;;;5.65;86.50
52625;BME280;38519;52.540;13.410;2023-04-27T05:04:22;101044.00;;;5.63;85.29
52625;BME280;38519;52.540;13.410;2023-04-27T05:06:47;101047.84;;;5.49;86.99
52625;BME280;38519;52.540;13.410;2023-04-27T05:09:13;101057.28;;;5.57;86.41
52625;BME280;38519;52.540;13.410;2023-04-27T05:11:38;101047.38;;;5.53;87.54
52625;BME280;38519;52.540;13.410;2023-04-27T05:14:03;101047.97;;;5.68;86.36
52625;BME280;38519;52.540;13.410;2023-04-27T05:16:28;101049.34;;;5.64;85.45
52625;BME280;38519;52.540;13.410;2023-04-27T05:18:54;101053.75;;;5.74;85.17
52625;BME280;38519;52.540;13.410;2023-04-27T05:21:19;101050.09;;;5.72;85.66
52625;BME280;38519;52.540;13.410;2023-04-27T05:23:46;101048.72;;;5.76;84.64
52625;BME280;38519;52.540;13.410;2023-04-27T05:26:15;101054.53;;;5.73;85.21
52625;BME280;38519;52.540;13.410;2023-04-27T05:28:40;101051.63;;;5.70;85.77
52625;BME280;38519;52.540;13.410;2023-04-27T05:31:05;101051.63;;;5.70;85.28
52625;BME280;38519;52.540;13.410;2023-04-27T05:33:31;101049.16;;;5.80;84.68
52625;BME280;38519;52.540;13.410;2023-04-27T05:35:56;101054.34;;;5.89;84.32
52625;BME280;38519;52.540;13.410;2023-04-27T05:38:21;101057.53;;;5.87;85.78
52625;BME280;38519;52.540;13.410;2023-04-27T05:40:46;101054.94;;;5.87;85.09
52625;BME280;38519;52.540;13.410;2023-04-27T05:43:17;101058.72;;;6.08;84.24
52625;BME280;38519;52.540;13.410;2023-04-27T05:45:43;101060.06;;;6.13;83.80
52625;BME280;38519;52.540;13.410;2023-04-27T05:48:08;101058.56;;;6.15;83.96
52625;BME280;38519;52.540;13.410;2023-04-27T05:50:33;101064.06;;;6.09;84.53
52625;BME280;38519;52.540;13.410;2023-04-27T05:52:58;101062.94;;;6.25;82.82
52625;BME280;38519;52.540;13.410;2023-04-27T05:55:25;101068.63;;;6.12;84.49
52625;BME280;38519;52.540;13.410;2023-04-27T05:57:50;101065.13;;;5.94;84.18
52625;BME280;38519;52.540;13.410;2023-04-27T06:00:15;101067.31;;;5.80;85.12
52625;BME280;38519;52.540;13.410;2023-04-27T06:02:41;101062.00;;;5.70;85.56
52625;BME280;38519;52.540;13.410;2023-04-27T06:05:06;101066.56;;;5.64;85.83
52625;BME280;38519;52.540;13.410;2023-04-27T06:07:33;101080.13;;;5.61;85.82
52625;BME280;38519;52.540;13.410;2023-04-27T06:09:58;101080.75;;;5.59;86.83
52625;BME280;38519;52.540;13.410;2023-04-27T06:12:24;101076.56;;;5.87;84.26
52625;BME280;38519;52.540;13.410;2023-04-27T06:14:49;101080.09;;;5.88;83.86
52625;BME280;38519;52.540;13.410;2023-04-27T06:17:14;101075.38;;;5.83;83.45
52625;BME280;38519;52.540;13.410;2023-04-27T06:19:39;101079.31;;;5.89;83.16
52625;BME280;38519;52.540;13.410;2023-04-27T06:22:05;101083.91;;;6.00;81.52
52625;BME280;38519;52.540;13.410;2023-04-27T06:24:30;101083.59;;;6.06;81.74
52625;BME280;38519;52.540;13.410;2023-04-27T06:26:55;101081.16;;;6.07;81.41
52625;BME280;38519;52.540;13.410;2023-04-27T06:29:21;101090.31;;;6.04;81.50
52625;BME280;38519;52.540;13.410;2023-04-27T06:31:46;101092.72;;;5.93;81.71
52625;BME280;38519;52.540;13.410;2023-04-27T06:34:11;101086.03;;;5.87;81.01
52625;BME280;38519;52.540;13.410;2023-04-27T06:36:36;101090.16;;;5.76;83.10
52625;BME280;38519;52.540;13.410;2023-04-27T06:39:02;101092.75;;;5.76;82.83
52625;BME280;38519;52.540;13.410;2023-04-27T06:41:27;101096.09;;;6.01;81.92
52625;BME280;38519;52.540;13.410;2023-04-27T06:43:52;101089.34;;;6.20;80.94
52625;BME280;38519;52.540;13.410;2023-04-27T06:46:18;101091.59;;;6.63;78.17
52625;BME280;38519;52.540;13.410;2023-04-27T06:48:43;101097.50;;;6.98;76.51
52625;BME280;38519;52.540;13.410;2023-04-27T06:51:09;101098.28;;;6.97;75.18
52625;BME280;38519;52.540;13.410;2023-04-27T06:53:35;101094.09;;;6.80;76.11
52625;BME280;38519;52.540;13.410;2023-04-27T06:56:01;101096.31;;;6.67;77.27
52625;BME280;38519;52.540;13.410;2023-04-27T06:58:26;101095.94;;;6.53;77.96
52625;BME280;38519;52.540;13.410;2023-04-27T07:00:51;101094.84;;;6.51;78.02
52625;BME280;38519;52.540;13.410;2023-04-27T07:03:17;101108.13;;;6.54;77.31
52625;BME280;38519;52.540;13.410;2023-04-27T07:05:42;101104.63;;;6.45;77.62
52625;BME280;38519;52.540;13.410;2023-04-27T07:08:08;101106.00;;;6.50;77.17
52625;BME280;38519;52.540;13.410;2023-04-27T07:10:33;101105.81;;;6.57;77.00
52625;BME280;38519;52.540;13.410;2023-04-27T07:12:58;101106.31;;;6.53;77.35
52625;BME280;38519;52.540;13.410;2023-04-27T07:15:23;101098.66;;;6.55;78.12
52625;BME280;38519;52.540;13.410;2023-04-27T07:17:52;101109.97;;;6.83;75.68
52625;BME280;38519;52.540;13.410;2023-04-27T07:20:20;101106.72;;;7.14;75.07
52625;BME280;38519;52.540;13.410;2023-04-27T07:22:45;101109.34;;;7.52;73.15
52625;BME280;38519;52.540;13.410;2023-04-27T07:25:11;101111.97;;;7.81;72.60
52625;BME280;38519;52.540;13.410;2023-04-27T07:27:36;101110.56;;;7.84;72.43
52625;BME280;38519;52.540;13.410;2023-04-27T07:30:02;101108.28;;;7.98;71.61
52625;BME280;38519;52.540;13.410;2023-04-27T07:32:28;101107.31;;;7.87;72.53
52625;BME280;38519;52.540;13.410;2023-04-27T07:34:57;101098.34;;;8.13;71.45
52625;BME280;38519;52.540;13.410;2023-04-27T07:37:22;101106.31;;;8.25;70.29
52625;BME280;38519;52.540;13.410;2023-04-27T07:39:48;101100.78;;;8.11;71.88
52625;BME280;38519;52.540;13.410;2023-04-27T07:42:14;101102.06;;;8.35;70.38
52625;BME280;38519;52.540;13.410;2023-04-27T07:44:40;101101.22;;;8.16;70.76
52625;BME280;38519;52.540;13.410;2023-04-27T07:47:06;101114.22;;;8.16;71.12
52625;BME280;38519;52.540;13.410;2023-04-27T07:49:32;101119.22;;;8.04;72.95
52625;BME280;38519;52.540;13.410;2023-04-27T07:51:58;101111.69;;;8.07;72.31
52625;BME280;38519;52.540;13.410;2023-04-27T07:54:23;101111.56;;;8.06;73.83
52625;BME280;38519;52.540;13.410;2023-04-27T07:56:48;101119.41;;;8.16;72.95
52625;BME280;38519;52.540;13.410;2023-04-27T07:59:14;101119.28;;;8.14;73.22
52625;BME280;38519;52.540;13.410;2023-04-27T08:01:39;101124.03;;;8.39;72.87
52625;BME280;38519;52.540;13.410;2023-04-27T08:04:04;101118.97;;;8.41;72.72
52625;BME280;38519;52.540;13.410;2023-04-27T08:06:30;101122.69;;;8.53;73.02
52625;BME280;38519;52.540;13.410;2023-04-27T08:08:55;101115.38;;;8.49;71.81
52625;BME280;38519;52.540;13.410;2023-04-27T08:11:24;101129.97;;;8.17;73.21
52625;BME280;38519;52.540;13.410;2023-04-27T08:13:50;101126.53;;;7.79;74.19
52625;BME280;38519;52.540;13.410;2023-04-27T08:16:15;101124.13;;;7.72;74.89
52625;BME280;38519;52.540;13.410;2023-04-27T08:18:42;101128.31;;;7.80;75.24
52625;BME280;38519;52.540;13.410;2023-04-27T08:21:07;101130.88;;;7.89;74.90
52625;BME280;38519;52.540;13.410;2023-04-27T08:23:32;101127.78;;;8.22;74.58
52625;BME280;38519;52.540;13.410;2023-04-27T08:25:58;101128.16;;;8.56;72.63
52625;BME280;38519;52.540;13.410;2023-04-27T08:28:23;101131.81;;;8.58;72.33
52625;BME280;38519;52.540;13.410;2023-04-27T08:30:49;101133.69;;;8.80;70.91
52625;BME280;38519;52.540;13.410;2023-04-27T08:33:14;101130.53;;;8.34;73.92
52625;BME280;38519;52.540;13.410;2023-04-27T08:35:39;101133.63;;;8.30;74.21
52625;BME280;38519;52.540;13.410;2023-04-27T08:38:06;101131.97;;;8.01;75.06
52625;BME280;38519;52.540;13.410;2023-04-27T08:40:31;101137.81;;;7.79;76.15
52625;BME280;38519;52.540;13.410;2023-04-27T08:42:57;101127.38;;;7.88;76.31
52625;BME280;38519;52.540;13.410;2023-04-27T08:45:23;101128.41;;;7.90;76.45
52625;BME280;38519;52.540;13.410;2023-04-27T08:47:49;101124.81;;;7.98;75.89
52625;BME280;38519;52.540;13.410;2023-04-27T08:50:14;101129.16;;;8.18;75.03
52625;BME280;38519;52.540;13.410;2023-04-27T08:52:43;101132.28;;;8.44;74.20
52625;BME280;38519;52.540;13.410;2023-04-27T08:55:09;101129.97;;;8.57;73.44
52625;BME280;38519;52.540;13.410;2023-04-27T08:57:34;101132.69;;;8.48;74.01
52625;BME280;38519;52.540;13.410;2023-04-27T08:59:59;101133.69;;;8.40;75.33
52625;BME280;38519;52.540;13.410;2023-04-27T09:02:25;101131.31;;;8.33;75.48
52625;BME280;38519;52.540;13.410;2023-04-27T09:04:53;101133.31;;;8.16;77.00
52625;BME280;38519;52.540;13.410;2023-04-27T09:07:19;101128.16;;;7.97;77.59
52625;BME280;38519;52.540;13.410;2023-04-27T09:09:44;101126.94;;;8.13;75.29
52625;BME280;38519;52.540;13.410;2023-04-27T09:12:16;101132.56;;;8.17;75.58
52625;BME280;38519;52.540;13.410;2023-04-27T09:14:42;101135.31;;;8.19;75.45
52625;BME280;38519;52.540;13.410;2023-04-27T09:17:07;101131.91;;;8.20;75.41
52625;BME280;38519;52.540;13.410;2023-04-27T09:19:33;101136.19;;;8.49;75.36
52625;BME280;38519;52.540;13.410;2023-04-27T09:22:02;101135.72;;;8.63;75.36
52625;BME280;38519;52.540;13.410;2023-04-27T09:24:27;101139.66;;;8.79;74.37
52625;BME280;38519;52.540;13.410;2023-04-27T09:26:52;101134.09;;;8.95;73.72
52625;BME280;38519;52.540;13.410;2023-04-27T09:29:18;101129.00;;;8.86;72.83
52625;BME280;38519;52.540;13.410;2023-04-27T09:31:43;101129.13;;;8.87;73.28
52625;BME280;38519;52.540;13.410;2023-04-27T09:34:08;101129.19;;;8.48;73.52
52625;BME280;38519;52.540;13.410;2023-04-27T09:36:33;101119.59;;;8.28;75.39
52625;BME280;38519;52.540;13.410;2023-04-27T09:39:01;101127.38;;;8.17;76.00
52625;BME280;38519;52.540;13.410;2023-04-27T09:41:28;101115.94;;;8.26;75.72
52625;BME280;38519;52.540;13.410;2023-04-27T09:43:53;101109.81;;;8.65;74.29
52625;BME280;38519;52.540;13.410;2023-04-27T09:46:19;101116.50;;;9.13;72.23
52625;BME280;38519;52.540;13.410;2023-04-27T09:48:46;101116.50;;;9.13;71.89
52625;BME280;38519;52.540;13.410;2023-04-27T09:51:13;101110.94;;;9.18;71.25
52625;BME280;38519;52.540;13.410;2023-04-27T09:53:48;101115.75;;;9.14;71.10
52625;BME280;38519;52.540;13.410;2023-04-27T09:59:02;101114.81;;;9.13;71.12
52625;BME280;38519;52.540;13.410;2023-04-27T10:01:38;101099.84;;;9.10;72.61
52625;BME280;38519;52.540;13.410;2023-04-27T10:09:21;101101.25;;;9.48;71.33
52625;BME280;38519;52.540;13.410;2023-04-27T10:11:50;101095.84;;;9.67;71.54
52625;BME280;38519;52.540;13.410;2023-04-27T10:14:20;101104.81;;;9.81;69.92
52625;BME280;38519;52.540;13.410;2023-04-27T10:16:48;101104.91;;;9.93;66.35
52625;BME280;38519;52.540;13.410;2023-04-27T10:19:13;101100.59;;;9.93;67.21
52625;BME280;38519;52.540;13.410;2023-04-27T10:21:57;101092.28;;;10.19;67.77
52625;BME280;38519;52.540;13.410;2023-04-27T10:24:33;101092.63;;;10.79;66.59
52625;BME280;38519;52.540;13.410;2023-04-27T10:27:02;101087.44;;;10.90;66.40
52625;BME280;38519;52.540;13.410;2023-04-27T10:29:42;101088.06;;;10.54;67.92
52625;BME280;38519;52.540;13.410;2023-04-27T10:32:11;101090.41;;;9.96;70.49
52625;BME280;38519;52.540;13.410;2023-04-27T10:34:38;101092.16;;;9.86;70.61
52625;BME280;38519;52.540;13.410;2023-04-27T10:37:04;101089.19;;;10.03;70.32
52625;BME280;38519;52.540;13.410;2023-04-27T10:39:33;101090.44;;;10.18;70.45
52625;BME280;38519;52.540;13.410;2023-04-27T10:41:58;101098.75;;;10.02;69.46
52625;BME280;38519;52.540;13.410;2023-04-27T10:46:53;101094.78;;;9.75;72.52
52625;BME280;38519;52.540;13.410;2023-04-27T10:49:18;101088.94;;;10.10;72.37
52625;BME280;38519;52.540;13.410;2023-04-27T10:51:44;101088.16;;;10.66;70.77
52625;BME280;38519;52.540;13.410;2023-04-27T10:54:10;101080.44;;;11.25;68.45
52625;BME280;38519;52.540;13.410;2023-04-27T10:56:36;101087.00;;;11.65;62.61
52625;BME280;38519;52.540;13.410;2023-04-27T10:59:02;101092.91;;;11.98;63.96
52625;BME280;38519;52.540;13.410;2023-04-27T11:01:28;101085.84;;;11.62;64.79
52625;BME280;38519;52.540;13.410;2023-04-27T11:03:56;101092.31;;;11.32;67.30
52625;BME280;38519;52.540;13.410;2023-04-27T11:06:22;101093.06;;;10.85;69.42
52625;BME280;38519;52.540;13.410;2023-04-27T11:08:48;101091.41;;;10.41;71.06
52625;BME280;38519;52.540;13.410;2023-04-27T11:11:14;101092.31;;;10.09;72.42
52625;BME280;38519;52.540;13.410;2023-04-27T11:13:42;101096.00;;;10.01;72.74
52625;BME280;38519;52.540;13.410;2023-04-27T11:16:07;101094.59;;;9.94;73.13
52625;BME280;38519;52.540;13.410;2023-04-27T11:18:36;101091.41;;;9.76;73.82
52625;BME280;38519;52.540;13.410;2023-04-27T11:21:18;101087.34;;;9.80;74.33
52625;BME280;38519;52.540;13.410;2023-04-27T11:23:44;101098.34;;;9.65;74.66
52625;BME280;38519;52.540;13.410;2023-04-27T11:26:10;101104.03;;;9.82;74.20
52625;BME280;38519;52.540;13.410;2023-04-27T11:28:35;101103.31;;;10.05;74.38
52625;BME280;38519;52.540;13.410;2023-04-27T11:31:01;101103.50;;;10.18;74.09
52625;BME280;38519;52.540;13.410;2023-04-27T11:33:28;101105.03;;;10.27;73.04
52625;BME280;38519;52.540;13.410;2023-04-27T11:35:53;101105.31;;;10.52;71.53
52625;BME280;38519;52.540;13.410;2023-04-27T11:38:19;101115.53;;;10.49;71.92
52625;BME280;38519;52.540;13.410;2023-04-27T11:40:45;101110.19;;;10.15;73.36
52625;BME280;38519;52.540;13.410;2023-04-27T11:43:12;101116.66;;;10.20;73.92
52625;BME280;38519;52.540;13.410;2023-04-27T11:45:40;101113.03;;;10.18;73.60
52625;BME280;38519;52.540;13.410;2023-04-27T11:48:05;101126.53;;;9.92;74.38
52625;BME280;38519;52.540;13.410;2023-04-27T11:50:32;101122.13;;;9.91;74.05
52625;BME280;38519;52.540;13.410;2023-04-27T11:52:59;101117.25;;;10.06;74.15
52625;BME280;38519;52.540;13.410;2023-04-27T11:55:24;101132.50;;;10.11;74.40
52625;BME280;38519;52.540;13.410;2023-04-27T11:57:55;101127.00;;;10.51;73.09
52625;BME280;38519;52.540;13.410;2023-04-27T12:00:20;101130.22;;;10.81;72.32
52625;BME280;38519;52.540;13.410;2023-04-27T12:02:46;101124.78;;;10.89;72.25
52625;BME280;38519;52.540;13.410;2023-04-27T12:05:11;101128.78;;;10.96;71.95
52625;BME280;38519;52.540;13.410;2023-04-27T12:07:36;101135.22;;;10.89;72.08
52625;BME280;38519;52.540;13.410;2023-04-27T12:10:02;101133.72;;;10.27;74.05
52625;BME280;38519;52.540;13.410;2023-04-27T12:12:28;101138.75;;;10.13;74.59
52625;BME280;38519;52.540;13.410;2023-04-27T12:14:53;101139.97;;;10.07;75.29
52625;BME280;38519;52.540;13.410;2023-04-27T12:17:19;101128.75;;;9.97;75.94
52625;BME280;38519;52.540;13.410;2023-04-27T12:19:44;101136.78;;;10.11;75.88
52625;BME280;38519;52.540;13.410;2023-04-27T12:22:09;101135.97;;;10.32;75.33
52625;BME280;38519;52.540;13.410;2023-04-27T12:24:34;101141.28;;;10.66;75.21
52625;BME280;38519;52.540;13.410;2023-04-27T12:27:01;101138.72;;;11.12;73.40
52625;BME280;38519;52.540;13.410;2023-04-27T12:29:27;101130.00;;;10.89;72.86
52625;BME280;38519;52.540;13.410;2023-04-27T12:31:53;101138.72;;;10.78;74.13
52625;BME280;38519;52.540;13.410;2023-04-27T12:34:18;101140.28;;;10.98;73.00
52625;BME280;38519;52.540;13.410;2023-04-27T12:36:44;101137.59;;;11.08;73.28
52625;BME280;38519;52.540;13.410;2023-04-27T12:39:20;101137.16;;;11.14;73.05
52625;BME280;38519;52.540;13.410;2023-04-27T12:41:47;101137.34;;;11.05;73.88
52625;BME280;38519;52.540;13.410;2023-04-27T12:44:13;101128.44;;;10.91;74.39
52625;BME280;38519;52.540;13.410;2023-04-27T12:46:39;101129.91;;;10.44;76.73
52625;BME280;38519;52.540;13.410;2023-04-27T12:49:04;101133.59;;;11.02;73.15
52625;BME280;38519;52.540;13.410;2023-04-27T12:51:30;101135.56;;;11.16;72.78